createdAt,value
2022-11-19T00:00:17.857Z,99204.75
2022-11-19T00:02:46.828Z,99204.59
2022-11-19T00:05:15.183Z,99202.81
2022-11-19T00:07:45.250Z,99207.97
2022-11-19T00:10:13.731Z,99215.78
2022-11-19T00:12:56.546Z,99210.72
2022-11-19T00:15:25.713Z,99225.22
2022-11-19T00:17:54.120Z,99211.34
2022-11-19T00:20:23.426Z,99212.72
2022-11-19T00:22:54.253Z,99217.81
2022-11-19T00:25:23.385Z,99220.19
2022-11-19T00:27:52.513Z,99214.97
2022-11-19T00:30:46.305Z,99212.34
2022-11-19T00:33:10.088Z,99219.84
2022-11-19T00:35:38.482Z,99220.63
2022-11-19T00:38:08.287Z,99237.84
2022-11-19T00:40:36.685Z,99223.03
2022-11-19T00:43:22.865Z,99225.50
2022-11-19T00:45:51.348Z,99216.81
2022-11-19T00:48:19.747Z,99214.19
2022-11-19T00:50:48.142Z,99202.19
2022-11-19T00:53:18.043Z,99205.63
2022-11-19T00:55:46.689Z,99218.50
2022-11-19T00:58:15.093Z,99210.72
2022-11-19T01:00:43.419Z,99211.63
2022-11-19T01:03:12.249Z,99214.13
2022-11-19T01:05:40.943Z,99226.22
2022-11-19T01:08:09.405Z,99226.13
2022-11-19T01:10:39.347Z,99228.63
2022-11-19T01:13:26.254Z,99232.97
2022-11-19T01:15:54.656Z,99226.84
2022-11-19T01:18:23.161Z,99227.72
2022-11-19T01:20:51.819Z,99236.44
2022-11-19T01:23:20.434Z,99250.13
2022-11-19T01:25:50.335Z,99244.03
2022-11-19T01:28:18.887Z,99256.84
2022-11-19T01:30:47.493Z,99252.41
2022-11-19T01:33:15.979Z,99264.41
2022-11-19T01:35:44.614Z,99262.72
2022-11-19T01:38:13.263Z,99259.22
2022-11-19T01:40:46.801Z,99267.69
2022-11-19T01:43:16.635Z,99263.94
2022-11-19T01:45:48.309Z,99271.47
2022-11-19T01:48:22.127Z,99267.13
2022-11-19T01:50:56.446Z,99263.66
2022-11-19T01:53:29.512Z,99267.00
2022-11-19T01:56:03.900Z,99272.16
2022-11-19T01:58:38.922Z,99271.38
2022-11-19T02:01:08.992Z,99270.50
2022-11-19T02:03:39.536Z,99278.09
2022-11-19T02:06:09.253Z,99274.56
2022-11-19T02:08:42.244Z,99270.91
2022-11-19T02:11:41.664Z,99285.25
2022-11-19T02:14:26.599Z,99289.31
2022-11-19T02:17:04.174Z,99289.03
2022-11-19T02:20:17.223Z,99287.06
2022-11-19T02:23:40.635Z,99284.19
2022-11-19T02:27:03.539Z,99288.38
2022-11-19T02:30:08.820Z,99294.28
2022-11-19T02:32:44.965Z,99294.28
2022-11-19T02:35:23.348Z,99291.69
2022-11-19T02:37:57.660Z,99297.66
2022-11-19T02:40:30.032Z,99299.25
2022-11-19T02:43:12.288Z,99297.53
2022-11-19T02:45:48.312Z,99288.84
2022-11-19T02:48:21.779Z,99293.69
2022-11-19T02:50:54.491Z,99304.66
2022-11-19T02:53:23.798Z,99290.00
2022-11-19T02:56:06.099Z,99292.66
2022-11-19T02:58:54.664Z,99296.34
2022-11-19T03:01:43.298Z,99295.66
2022-11-19T03:04:32.561Z,99295.59
2022-11-19T03:07:05.961Z,99290.22
2022-11-19T03:09:40.047Z,99302.38
2022-11-19T03:12:19.251Z,99295.50
2022-11-19T03:15:13.802Z,99304.19
2022-11-19T03:18:02.846Z,99298.16
2022-11-19T03:20:35.709Z,99294.69
2022-11-19T03:23:11.899Z,99300.81
2022-11-19T03:25:45.785Z,99301.63
2022-11-19T03:28:20.429Z,99301.69
2022-11-19T03:30:50.873Z,99302.66
2022-11-19T03:33:25.156Z,99301.84
2022-11-19T03:35:58.786Z,99300.81
2022-11-19T03:38:32.853Z,99299.22
2022-11-19T03:41:03.747Z,99291.31
2022-11-19T03:43:37.034Z,99298.84
2022-11-19T03:46:10.256Z,99303.69
2022-11-19T03:48:42.880Z,99306.19
2022-11-19T03:51:16.497Z,99311.31
2022-11-19T03:53:45.772Z,99315.56
2022-11-19T03:56:18.818Z,99322.91
2022-11-19T03:58:48.766Z,99318.47
2022-11-19T04:01:17.548Z,99325.22
2022-11-19T04:04:07.590Z,99321.72
2022-11-19T04:06:36.012Z,99320.44
2022-11-19T04:09:04.447Z,99327.94
2022-11-19T04:11:32.980Z,99338.09
2022-11-19T04:14:01.359Z,99324.06
2022-11-19T04:16:29.703Z,99334.16
2022-11-19T04:18:59.516Z,99330.66
2022-11-19T04:21:28.225Z,99339.16
2022-11-19T04:23:56.592Z,99324.63
2022-11-19T04:26:24.944Z,99336.72
2022-11-19T04:28:53.352Z,99343.75
2022-11-19T04:31:21.695Z,99349.03
2022-11-19T04:33:50.351Z,99349.91
2022-11-19T04:36:20.333Z,99356.91
2022-11-19T04:38:48.776Z,99354.91
2022-11-19T04:41:17.145Z,99363.41
2022-11-19T04:43:45.798Z,99360.84
2022-11-19T04:46:14.198Z,99363.34
2022-11-19T04:48:42.812Z,99371.94
2022-11-19T04:51:11.376Z,99354.81
2022-11-19T04:53:41.178Z,99368.41
2022-11-19T04:56:09.508Z,99365.53
2022-11-19T04:58:38.175Z,99377.19
2022-11-19T05:01:07.692Z,99365.72
2022-11-19T05:03:37.205Z,99385.22
2022-11-19T05:06:05.971Z,99381.78
2022-11-19T05:08:34.734Z,99376.16
2022-11-19T05:11:04.538Z,99373.25
2022-11-19T05:13:33.349Z,99386.13
2022-11-19T05:16:02.206Z,99375.03
2022-11-19T05:18:30.698Z,99382.75
2022-11-19T05:20:59.291Z,99378.25
2022-11-19T05:23:28.219Z,99381.44
2022-11-19T05:25:56.821Z,99389.97
2022-11-19T05:28:37.935Z,99399.28
2022-11-19T05:31:07.517Z,99399.28
2022-11-19T05:33:36.084Z,99408.59
2022-11-19T05:36:05.089Z,99406.84
2022-11-19T05:38:33.572Z,99417.13
2022-11-19T05:41:01.939Z,99409.41
2022-11-19T05:43:31.884Z,99414.63
2022-11-19T05:46:01.683Z,99418.88
2022-11-19T05:48:30.440Z,99418.88
2022-11-19T05:50:59.201Z,99413.72
2022-11-19T05:53:28.433Z,99413.03
2022-11-19T05:55:56.836Z,99424.19
2022-11-19T05:58:25.242Z,99415.69
2022-11-19T06:00:57.434Z,99420.97
2022-11-19T06:03:26.341Z,99430.38
2022-11-19T06:05:54.764Z,99425.22
2022-11-19T06:08:23.150Z,99430.47
2022-11-19T06:10:51.655Z,99427.00
2022-11-19T06:13:20.111Z,99431.44
2022-11-19T06:15:48.779Z,99436.56
2022-11-19T06:18:18.861Z,99444.91
2022-11-19T06:20:47.350Z,99447.41
2022-11-19T06:23:16.106Z,99446.97
2022-11-19T06:25:44.551Z,99460.19
2022-11-19T06:28:13.101Z,99457.38
2022-11-19T06:30:41.566Z,99457.28
2022-11-19T06:33:09.905Z,99466.06
2022-11-19T06:35:39.614Z,99467.84
2022-11-19T06:38:08.265Z,99472.81
2022-11-19T06:40:36.695Z,99471.03
2022-11-19T06:43:05.288Z,99476.16
2022-11-19T06:45:33.838Z,99478.69
2022-11-19T06:48:02.731Z,99476.00
2022-11-19T06:50:31.542Z,99481.84
2022-11-19T06:53:01.253Z,99483.63
2022-11-19T06:55:29.648Z,99486.28
2022-11-19T06:57:57.997Z,99487.34
2022-11-19T07:00:26.520Z,99482.28
2022-11-19T07:02:55.401Z,99489.34
2022-11-19T07:05:23.921Z,99498.84
2022-11-19T07:07:52.541Z,99502.38
2022-11-19T07:10:22.484Z,99507.53
2022-11-19T07:12:50.928Z,99510.97
2022-11-19T07:15:19.576Z,99505.75
2022-11-19T07:17:48.744Z,99507.34
2022-11-19T07:20:18.088Z,99501.31
2022-11-19T07:22:46.686Z,99514.25
2022-11-19T07:25:15.104Z,99512.66
2022-11-19T07:27:47.300Z,99516.13
2022-11-19T07:30:17.245Z,99528.41
2022-11-19T07:32:45.926Z,99519.63
2022-11-19T07:35:14.709Z,99515.38
2022-11-19T07:37:43.101Z,99514.25
2022-11-19T07:40:14.955Z,99522.16
2022-11-19T07:42:49.644Z,99527.91
2022-11-19T07:45:20.809Z,99538.81
2022-11-19T07:47:49.654Z,99542.03
2022-11-19T07:50:18.567Z,99538.47
2022-11-19T07:52:46.951Z,99532.19
2022-11-19T07:55:15.931Z,99537.16
2022-11-19T07:57:45.829Z,99545.47
2022-11-19T08:00:16.071Z,99540.19
2022-11-19T08:02:44.504Z,99544.34
2022-11-19T08:05:12.963Z,99552.84
2022-11-19T08:07:42.010Z,99553.72
2022-11-19T08:10:12.016Z,99546.81
2022-11-19T08:12:40.571Z,99552.69
2022-11-19T08:15:12.353Z,99550.19
2022-11-19T08:17:58.281Z,99550.09
2022-11-19T08:20:26.864Z,99558.59
2022-11-19T08:22:55.288Z,99559.31
2022-11-19T08:25:23.698Z,99568.72
2022-11-19T08:27:52.140Z,99565.25
2022-11-19T08:30:22.210Z,99569.56
2022-11-19T08:32:51.803Z,99581.56
2022-11-19T08:35:20.137Z,99584.97
2022-11-19T08:37:49.159Z,99577.91
2022-11-19T08:40:18.937Z,99594.00
2022-11-19T08:43:01.673Z,99587.78
2022-11-19T08:45:34.939Z,99591.97
2022-11-19T08:48:06.150Z,99586.91
2022-11-19T08:50:35.221Z,99587.78
2022-11-19T08:53:06.493Z,99594.00
2022-11-19T08:55:34.906Z,99600.81
2022-11-19T08:58:05.512Z,99601.72
2022-11-19T09:00:38.221Z,99598.94
2022-11-19T09:03:06.660Z,99598.94
2022-11-19T09:05:35.129Z,99607.63
2022-11-19T09:08:04.008Z,99606.84
2022-11-19T09:10:32.437Z,99599.72
2022-11-19T09:13:03.434Z,99614.25
2022-11-19T09:15:32.450Z,99614.34
2022-11-19T09:18:02.278Z,99614.66
2022-11-19T09:20:30.768Z,99628.63
2022-11-19T09:22:59.271Z,99621.81
2022-11-19T09:25:29.276Z,99624.50
2022-11-19T09:27:58.125Z,99624.38
2022-11-19T09:30:26.922Z,99622.72
2022-11-19T09:32:55.379Z,99636.53
2022-11-19T09:35:25.418Z,99636.78
2022-11-19T09:37:53.863Z,99636.09
2022-11-19T09:40:23.775Z,99637.25
2022-11-19T09:43:06.744Z,99640.09
2022-11-19T09:45:51.364Z,99645.22
2022-11-19T09:48:30.608Z,99650.19
2022-11-19T09:51:08.101Z,99649.00
2022-11-19T09:53:44.756Z,99653.00
2022-11-19T09:56:19.696Z,99654.50
2022-11-19T09:58:48.376Z,99652.63
2022-11-19T10:01:19.366Z,99661.34
2022-11-19T10:03:50.377Z,99655.41
2022-11-19T10:06:30.801Z,99658.13
2022-11-19T10:09:28.692Z,99661.44
2022-11-19T10:12:09.231Z,99664.78
2022-11-19T10:15:03.552Z,99661.34
2022-11-19T10:17:47.800Z,99670.09
2022-11-19T10:20:35.658Z,99672.66
2022-11-19T10:23:14.412Z,99667.63
2022-11-19T10:25:46.743Z,99670.19
2022-11-19T10:28:18.555Z,99677.09
2022-11-19T10:30:51.093Z,99674.16
2022-11-19T10:33:28.433Z,99683.28
2022-11-19T10:35:59.757Z,99671.03
2022-11-19T10:38:35.457Z,99676.19
2022-11-19T10:41:13.668Z,99681.50
2022-11-19T10:43:48.150Z,99674.59
2022-11-19T10:46:21.693Z,99672.81
2022-11-19T10:48:54.367Z,99671.03
2022-11-19T10:51:25.852Z,99666.50
2022-11-19T10:53:57.249Z,99660.47
2022-11-19T10:56:36.284Z,99669.25
2022-11-19T10:59:12.942Z,99672.03
2022-11-19T11:01:44.552Z,99663.63
2022-11-19T11:04:19.724Z,99674.00
2022-11-19T11:06:54.301Z,99674.81
2022-11-19T11:09:36.939Z,99674.19
2022-11-19T11:12:31.164Z,99675.72
2022-11-19T11:15:09.775Z,99683.31
2022-11-19T11:17:38.993Z,99678.38
2022-11-19T11:20:22.044Z,99671.84
2022-11-19T11:22:52.262Z,99666.22
2022-11-19T11:25:26.179Z,99667.25
2022-11-19T11:28:07.246Z,99669.81
2022-11-19T11:30:36.696Z,99667.16
2022-11-19T11:33:34.375Z,99667.88
2022-11-19T11:36:08.221Z,99669.66
2022-11-19T11:38:44.056Z,99672.28
2022-11-19T11:44:09.093Z,99658.88
2022-11-19T11:46:42.647Z,99660.81
2022-11-19T11:49:27.681Z,99664.34
2022-11-19T11:52:15.503Z,99664.63
2022-11-19T11:55:02.333Z,99662.22
2022-11-19T11:57:34.290Z,99658.84
2022-11-19T12:00:08.645Z,99663.84
2022-11-19T12:02:37.588Z,99662.94
2022-11-19T12:05:15.297Z,99657.09
2022-11-19T12:08:05.625Z,99655.59
2022-11-19T12:10:47.182Z,99663.56
2022-11-19T12:13:47.864Z,99666.94
2022-11-19T12:16:23.918Z,99662.66
2022-11-19T12:19:10.396Z,99659.41
2022-11-19T12:21:49.206Z,99655.06
2022-11-19T12:24:38.593Z,99653.28
2022-11-19T12:27:21.400Z,99656.00
2022-11-19T12:30:05.339Z,99648.41
2022-11-19T12:33:13.064Z,99648.41
2022-11-19T12:35:57.649Z,99656.22
2022-11-19T12:38:42.473Z,99659.56
2022-11-19T12:41:34.208Z,99660.56
2022-11-19T12:44:07.655Z,99659.72
2022-11-19T12:46:51.681Z,99657.34
2022-11-19T12:49:52.649Z,99653.75
2022-11-19T12:52:51.532Z,99659.66
2022-11-19T12:55:33.191Z,99651.06
2022-11-19T12:58:14.067Z,99652.66
2022-11-19T13:00:53.043Z,99648.41
2022-11-19T13:03:38.974Z,99652.66
2022-11-19T13:06:18.168Z,99658.59
2022-11-19T13:08:52.954Z,99666.28
2022-11-19T13:11:26.406Z,99665.50
2022-11-19T13:14:00.549Z,99668.88
2022-11-19T13:16:31.910Z,99667.97
2022-11-19T13:19:19.968Z,99662.13
2022-11-19T13:21:55.136Z,99655.31
2022-11-19T13:24:34.130Z,99654.53
2022-11-19T13:27:06.703Z,99661.34
2022-11-19T13:29:42.697Z,99651.88
2022-11-19T13:32:20.287Z,99655.22
2022-11-19T13:35:03.941Z,99654.44
2022-11-19T13:37:46.526Z,99655.41
2022-11-19T13:40:30.658Z,99653.63
2022-11-19T13:43:31.538Z,99651.75
2022-11-19T13:46:17.311Z,99657.00
2022-11-19T13:48:52.796Z,99662.31
2022-11-19T13:51:29.008Z,99654.59
2022-11-19T13:54:02.985Z,99659.72
2022-11-19T13:56:44.382Z,99662.50
2022-11-19T13:59:35.034Z,99659.94
2022-11-19T14:02:46.893Z,99659.03
2022-11-19T14:05:51.435Z,99661.69
2022-11-19T14:08:49.530Z,99660.63
2022-11-19T14:11:47.322Z,99668.97
2022-11-19T14:14:50.434Z,99673.22
2022-11-19T14:17:48.578Z,99673.22
2022-11-19T14:20:55.548Z,99674.09
2022-11-19T14:24:04.962Z,99663.72
2022-11-19T14:27:19.385Z,99674.63
2022-11-19T14:29:59.177Z,99679.78
2022-11-19T14:32:47.334Z,99674.28
2022-11-19T14:35:32.090Z,99674.16
2022-11-19T14:38:37.010Z,99677.63
2022-11-19T14:41:39.589Z,99676.75
2022-11-19T14:44:14.072Z,99676.03
2022-11-19T14:46:46.023Z,99671.81
2022-11-19T14:49:31.071Z,99671.06
2022-11-19T14:52:00.263Z,99670.91
2022-11-19T14:54:40.946Z,99676.84
2022-11-19T14:57:25.196Z,99678.44
2022-11-19T14:59:58.461Z,99671.44
2022-11-19T15:02:36.779Z,99685.06
2022-11-19T15:05:17.945Z,99684.97
2022-11-19T15:07:55.557Z,99680.66
2022-11-19T15:10:48.213Z,99691.72
2022-11-19T15:13:29.514Z,99689.16
2022-11-19T15:16:07.241Z,99686.50
2022-11-19T15:19:23.675Z,99692.31
2022-11-19T15:22:30.072Z,99682.66
2022-11-19T15:25:31.545Z,99687.00
2022-11-19T15:28:16.521Z,99681.00
2022-11-19T15:31:01.626Z,99681.88
2022-11-19T15:33:57.857Z,99690.47
2022-11-19T15:36:33.875Z,99685.25
2022-11-19T15:39:10.657Z,99682.56
2022-11-19T15:42:00.168Z,99683.28
2022-11-19T15:44:36.371Z,99689.22
2022-11-19T15:47:12.391Z,99690.00
2022-11-19T15:49:42.256Z,99687.44
2022-11-19T15:52:21.014Z,99683.19
2022-11-19T15:54:49.543Z,99677.97
2022-11-19T15:57:28.237Z,99684.97
2022-11-19T16:00:00.969Z,99679.75
2022-11-19T16:02:37.912Z,99679.75
2022-11-19T16:05:07.809Z,99679.75
2022-11-19T16:07:36.426Z,99676.97
2022-11-19T16:10:06.173Z,99688.81
2022-11-19T16:12:52.373Z,99686.25
2022-11-19T16:15:42.529Z,99699.88
2022-11-19T16:18:18.061Z,99697.25
2022-11-19T16:20:50.345Z,99696.34
2022-11-19T16:23:21.885Z,99704.63
2022-11-19T16:25:50.713Z,99701.13
2022-11-19T16:28:23.379Z,99700.34
2022-11-19T16:30:54.271Z,99700.22
2022-11-19T16:33:26.581Z,99708.03
2022-11-19T16:36:12.857Z,99700.34
2022-11-19T16:38:44.207Z,99707.03
2022-11-19T16:41:31.383Z,99698.97
2022-11-19T16:44:00.721Z,99703.03
2022-11-19T16:46:30.865Z,99707.28
2022-11-19T16:49:01.344Z,99704.72
2022-11-19T16:51:41.587Z,99697.91
2022-11-19T16:54:12.075Z,99696.22
2022-11-19T16:56:44.466Z,99692.84
2022-11-19T16:59:21.705Z,99699.66
2022-11-19T17:01:56.142Z,99694.53
2022-11-19T17:04:29.627Z,99697.91
2022-11-19T17:06:58.906Z,99702.16
2022-11-19T17:09:37.371Z,99709.91
2022-11-19T17:12:25.151Z,99703.72
2022-11-19T17:14:59.752Z,99706.13
2022-11-19T17:17:40.833Z,99703.34
2022-11-19T17:20:53.564Z,99704.06
2022-11-19T17:23:23.818Z,99708.22
2022-11-19T17:25:58.022Z,99702.09
2022-11-19T17:28:38.217Z,99708.91
2022-11-19T17:31:15.873Z,99713.06
2022-11-19T17:33:56.148Z,99715.63
2022-11-19T17:36:27.620Z,99709.50
2022-11-19T17:38:56.376Z,99701.81
2022-11-19T17:41:45.622Z,99719.78
2022-11-19T17:44:34.565Z,99716.22
2022-11-19T17:47:21.313Z,99723.06
2022-11-19T17:49:51.917Z,99724.75
2022-11-19T17:52:28.110Z,99719.69
2022-11-19T17:55:05.234Z,99731.63
2022-11-19T17:57:39.735Z,99728.97
2022-11-19T18:00:12.790Z,99725.53
2022-11-19T18:02:41.130Z,99726.31
2022-11-19T18:05:16.840Z,99739.13
2022-11-19T18:07:49.911Z,99733.91
2022-11-19T18:10:18.827Z,99726.03
2022-11-19T18:12:47.626Z,99732.84
2022-11-19T18:15:19.543Z,99734.53
2022-11-19T18:17:48.239Z,99735.19
2022-11-19T18:20:17.108Z,99741.22
2022-11-19T18:22:47.833Z,99739.44
2022-11-19T18:25:20.178Z,99735.19
2022-11-19T18:27:48.927Z,99734.25
2022-11-19T18:30:18.413Z,99736.03
2022-11-19T18:32:46.906Z,99734.25
2022-11-19T18:35:19.160Z,99727.34
2022-11-19T18:37:48.000Z,99733.84
2022-11-19T18:40:17.971Z,99731.91
2022-11-19T18:43:15.416Z,99733.47
2022-11-19T18:45:43.826Z,99731.31
2022-11-19T18:48:13.092Z,99737.22
2022-11-19T18:50:41.672Z,99739.00
2022-11-19T18:53:11.967Z,99732.00
2022-11-19T18:55:44.258Z,99732.00
2022-11-19T18:58:14.230Z,99731.91
2022-11-19T19:00:43.507Z,99730.25
2022-11-19T19:03:13.820Z,99729.34
2022-11-19T19:05:44.572Z,99728.47
2022-11-19T19:08:14.165Z,99730.91
2022-11-19T19:10:44.638Z,99724.91
2022-11-19T19:13:13.325Z,99729.13
2022-11-19T19:15:42.131Z,99722.25
2022-11-19T19:18:12.071Z,99722.16
2022-11-19T19:20:40.995Z,99724.72
2022-11-19T19:23:10.911Z,99734.09
2022-11-19T19:25:39.849Z,99733.09
2022-11-19T19:28:10.429Z,99740.78
2022-11-19T19:30:39.430Z,99735.66
2022-11-19T19:33:08.245Z,99735.66
2022-11-19T19:35:39.518Z,99733.88
2022-11-19T19:38:11.200Z,99730.44
2022-11-19T19:40:39.723Z,99730.34
2022-11-19T19:43:09.602Z,99732.81
2022-11-19T19:45:41.992Z,99736.16
2022-11-19T19:48:10.459Z,99734.31
2022-11-19T19:50:39.190Z,99732.63
2022-11-19T19:53:07.713Z,99731.75
2022-11-19T19:55:36.356Z,99731.53
2022-11-19T19:58:07.293Z,99724.63
2022-11-19T20:00:37.553Z,99726.22
2022-11-19T20:03:06.105Z,99729.56
2022-11-19T20:05:34.439Z,99727.78
2022-11-19T20:08:03.345Z,99734.69
2022-11-19T20:10:32.345Z,99728.66
2022-11-19T20:13:18.471Z,99727.78
2022-11-19T20:15:48.564Z,99731.13
2022-11-19T20:18:16.994Z,99726.78
2022-11-19T20:20:45.935Z,99734.47
2022-11-19T20:23:14.454Z,99737.84
2022-11-19T20:25:42.862Z,99728.38
2022-11-19T20:28:11.767Z,99727.59
2022-11-19T20:30:40.508Z,99723.25
2022-11-19T20:33:10.652Z,99720.69
2022-11-19T20:35:40.562Z,99721.38
2022-11-19T20:38:08.994Z,99722.25
2022-11-19T20:40:38.577Z,99727.22
2022-11-19T20:43:24.727Z,99727.00
2022-11-19T20:45:53.311Z,99724.91
2022-11-19T20:48:23.421Z,99729.25
2022-11-19T20:50:51.872Z,99737.72
2022-11-19T20:53:20.251Z,99739.41
2022-11-19T20:56:04.490Z,99736.84
2022-11-19T20:58:34.394Z,99727.38
2022-11-19T21:01:04.414Z,99724.63
2022-11-19T21:03:35.685Z,99730.53
2022-11-19T21:06:07.674Z,99733.88
2022-11-19T21:08:37.437Z,99732.03
2022-11-19T21:11:09.504Z,99737.16
2022-11-19T21:13:38.899Z,99737.03
2022-11-19T21:16:10.164Z,99741.16
2022-11-19T21:18:40.423Z,99732.53
2022-11-19T21:21:09.040Z,99740.09
2022-11-19T21:23:39.242Z,99741.88
2022-11-19T21:26:12.779Z,99729.84
2022-11-19T21:28:41.188Z,99726.28
2022-11-19T21:31:10.265Z,99722.94
2022-11-19T21:33:40.384Z,99718.59
2022-11-19T21:36:09.752Z,99712.50
2022-11-19T21:38:38.473Z,99713.28
2022-11-19T21:41:07.884Z,99715.84
2022-11-19T21:43:36.415Z,99715.75
2022-11-19T21:46:08.905Z,99714.97
2022-11-19T21:48:39.999Z,99715.75
2022-11-19T21:51:09.533Z,99726.00
2022-11-19T21:53:38.149Z,99716.44
2022-11-19T21:56:07.715Z,99713.66
2022-11-19T21:58:36.146Z,99717.00
2022-11-19T22:01:06.817Z,99718.78
2022-11-19T22:03:36.541Z,99721.25
2022-11-19T22:06:08.926Z,99721.25
2022-11-19T22:08:39.539Z,99724.63
2022-11-19T22:11:22.800Z,99722.84
2022-11-19T22:13:51.445Z,99726.19
2022-11-19T22:16:20.247Z,99725.28
2022-11-19T22:18:49.279Z,99721.06
2022-11-19T22:21:19.201Z,99714.91
2022-11-19T22:23:48.050Z,99720.03
2022-11-19T22:26:16.595Z,99719.94
2022-11-19T22:28:45.256Z,99714.81
2022-11-19T22:31:15.453Z,99708.72
2022-11-19T22:33:43.958Z,99710.38
2022-11-19T22:36:13.043Z,99714.50
2022-11-19T22:38:42.788Z,99711.94
2022-11-19T22:41:13.765Z,99709.31
2022-11-19T22:43:43.799Z,99711.75
2022-11-19T22:46:13.919Z,99710.88
2022-11-19T22:48:43.194Z,99712.41
2022-11-19T22:51:15.432Z,99721.00
2022-11-19T22:53:45.880Z,99724.34
2022-11-19T22:56:17.608Z,99713.13
2022-11-19T22:58:46.774Z,99708.78
2022-11-19T23:01:19.138Z,99711.34
2022-11-19T23:03:48.265Z,99710.03
2022-11-19T23:06:17.568Z,99708.75
2022-11-19T23:08:47.842Z,99706.97
2022-11-19T23:11:41.270Z,99702.44
2022-11-19T23:14:11.264Z,99709.22
2022-11-19T23:16:40.402Z,99704.81
2022-11-19T23:19:09.498Z,99697.91
2022-11-19T23:21:40.049Z,99695.34
2022-11-19T23:24:11.847Z,99698.81
2022-11-19T23:26:40.612Z,99702.25
2022-11-19T23:29:09.324Z,99697.91
2022-11-19T23:31:41.433Z,99704.81
2022-11-19T23:34:10.014Z,99704.59
2022-11-19T23:36:41.224Z,99704.81
2022-11-19T23:39:17.032Z,99703.81
2022-11-19T23:41:46.541Z,99711.50
2022-11-19T23:44:14.926Z,99707.16
2022-11-19T23:46:43.499Z,99707.91
2022-11-19T23:49:12.605Z,99695.94
2022-11-19T23:51:41.201Z,99701.06
2022-11-19T23:54:13.938Z,99690.81
2022-11-19T23:56:42.525Z,99702.63
2022-11-19T23:59:11.318Z,99695.03
